Time;durP1;ratioP1;P1;durP2;ratioP2;P2;SDS_P1;SDS_P2;PMS_P1;PMS_P2;Temp;Humidity;BMP_temperature;BMP_pressure;BME280_temperature;BME280_humidity;BME280_pressure;Samples;Min_cycle;Max_cycle;Signal;HPM_P1;HPM_P2
2021/09/15 00:02:14;;;;;;;16.12;8.75;;;;;;;14.90;100.00;100981.96;1727705;81;21097;-86
2021/09/15 00:04:42;;;;;;;12.33;9.15;;;;;;;14.96;100.00;100982.26;1719900;81;21088;-84
2021/09/15 00:07:10;;;;;;;12.18;9.58;;;;;;;15.01;100.00;100987.56;1712073;83;20950;-85
2021/09/15 00:09:37;;;;;;;15.50;8.88;;;;;;;15.03;100.00;100986.46;1712099;83;21168;-84
2021/09/15 00:12:06;;;;;;;16.77;8.90;;;;;;;15.06;100.00;100990.63;1712211;82;21005;-85
2021/09/15 00:14:34;;;;;;;16.93;10.70;;;;;;;15.09;100.00;100983.32;1696244;81;21033;-85
2021/09/15 00:17:01;;;;;;;11.70;9.58;;;;;;;15.08;100.00;100985.59;1695200;83;21101;-84
2021/09/15 00:19:29;;;;;;;14.50;9.80;;;;;;;15.06;100.00;100987.52;1759663;81;21601;-85
2021/09/15 00:21:56;;;;;;;17.10;10.20;;;;;;;15.02;100.00;100983.52;1745105;81;21154;-85
2021/09/15 00:24:25;;;;;;;14.28;9.98;;;;;;;14.96;100.00;100991.91;1712049;82;21059;-85
2021/09/15 00:26:52;;;;;;;14.23;10.40;;;;;;;14.92;100.00;100986.59;1692110;83;21060;-83
2021/09/15 00:29:21;;;;;;;14.85;10.80;;;;;;;14.88;100.00;100983.88;1691709;83;21032;-84
2021/09/15 00:31:48;;;;;;;15.95;11.03;;;;;;;14.82;100.00;100983.47;1692000;83;21023;-83
2021/09/15 00:34:14;;;;;;;14.75;10.40;;;;;;;14.79;100.00;100990.27;1699877;82;21094;-84
2021/09/15 00:36:41;;;;;;;12.43;10.18;;;;;;;14.75;100.00;100995.45;1704598;83;20952;-85
2021/09/15 00:39:09;;;;;;;16.60;10.85;;;;;;;14.71;100.00;100993.23;1714636;82;21011;-84
2021/09/15 00:41:36;;;;;;;17.42;10.88;;;;;;;14.66;100.00;100993.13;1714996;83;21333;-83
2021/09/15 00:44:07;;;;;;;13.72;9.98;;;;;;;14.63;100.00;100992.53;1713038;83;21640;-84
2021/09/15 00:46:38;;;;;;;13.15;11.05;;;;;;;14.61;100.00;100993.17;1712327;82;21854;-85
2021/09/15 00:49:08;;;;;;;14.25;11.28;;;;;;;14.59;100.00;100989.35;1712065;82;21002;-83
2021/09/15 00:51:39;;;;;;;13.68;10.63;;;;;;;14.57;100.00;100992.61;1716044;82;21500;-85
2021/09/15 00:54:08;;;;;;;12.82;9.68;;;;;;;14.53;100.00;100995.63;1733597;82;21505;-85
2021/09/15 00:56:37;;;;;;;12.78;10.38;;;;;;;14.47;100.00;100999.59;1741306;82;21070;-83
2021/09/15 00:59:06;;;;;;;10.75;8.88;;;;;;;14.40;100.00;100997.97;1685018;84;21086;-85
2021/09/15 01:01:35;;;;;;;9.75;8.23;;;;;;;14.36;100.00;101007.88;1660762;85;21129;-84
2021/09/15 01:04:05;;;;;;;11.48;8.10;;;;;;;14.34;100.00;101006.36;1685832;83;21085;-84
2021/09/15 01:06:34;;;;;;;15.45;8.15;;;;;;;14.33;100.00;101009.47;1694883;83;21101;-84
2021/09/15 01:09:05;;;;;;;16.73;8.35;;;;;;;14.29;100.00;101013.29;1726605;81;21046;-83
2021/09/15 01:11:35;;;;;;;;;;;;;;;14.27;100.00;101013.08;1762181;81;21449;-85
2021/09/15 01:14:05;;;;;;;10.13;7.95;;;;;;;14.22;100.00;101006.09;1706929;82;20128;-86
2021/09/15 01:16:52;;;;;;;10.40;8.00;;;;;;;14.18;100.00;101012.08;1650317;84;21074;-85
2021/09/15 01:19:39;;;;;;;17.00;8.15;;;;;;;14.15;100.00;101010.52;1677468;84;21122;-84
2021/09/15 01:22:25;;;;;;;11.93;7.47;;;;;;;14.16;100.00;101018.73;1629670;87;20995;-86
2021/09/15 01:25:12;;;;;;;10.58;8.00;;;;;;;14.15;100.00;101009.70;1682044;83;21112;-86
2021/09/15 01:27:44;;;;;;;17.05;8.20;;;;;;;14.15;100.00;101004.47;1674055;84;21071;-85
2021/09/15 01:30:22;;;;;;;9.55;7.62;;;;;;;14.16;100.00;101010.05;1668798;85;21123;-85
2021/09/15 01:32:53;;;;;;;14.90;8.70;;;;;;;14.08;100.00;101005.45;1665757;83;21047;-84
2021/09/15 01:35:21;;;;;;;9.88;7.83;;;;;;;13.90;100.00;101010.94;1684035;85;21034;-85
2021/09/15 01:37:48;;;;;;;16.32;8.18;;;;;;;13.72;100.00;101006.26;1657733;85;21801;-86
2021/09/15 01:40:15;;;;;;;10.70;7.78;;;;;;;13.64;100.00;101008.67;1657894;85;21493;-84
2021/09/15 01:42:42;;;;;;;10.18;8.25;;;;;;;13.62;100.00;101011.89;1657808;85;20996;-84
2021/09/15 01:45:12;;;;;;;15.13;10.58;;;;;;;13.54;100.00;101017.27;1657414;84;21033;-84
2021/09/15 01:47:40;;;;;;;15.90;10.40;;;;;;;13.44;100.00;101021.58;1677566;84;20977;-84
2021/09/15 01:50:08;;;;;;;15.53;11.12;;;;;;;13.36;100.00;101024.80;1653142;85;21868;-84
2021/09/15 01:52:35;;;;;;;12.90;9.80;;;;;;;13.30;100.00;101019.22;1657460;84;20999;-84
2021/09/15 01:55:06;;;;;;;12.95;9.08;;;;;;;13.30;100.00;101018.73;1644520;86;21621;-83
2021/09/15 01:57:34;;;;;;;37.67;10.70;;;;;;;13.36;100.00;101029.19;1652440;85;21064;-83
2021/09/15 02:00:03;;;;;;;14.53;8.33;;;;;;;13.45;100.00;101023.24;1623579;85;21058;-85
2021/09/15 02:02:44;;;;;;;15.68;9.48;;;;;;;13.48;100.00;101024.31;1652542;85;21031;-83
2021/09/15 02:05:13;;;;;;;11.63;9.20;;;;;;;13.42;100.00;101031.33;1647531;86;21073;-84
2021/09/15 02:07:48;;;;;;;13.90;9.40;;;;;;;13.42;100.00;101030.02;1737560;82;21066;-84
2021/09/15 02:10:18;;;;;;;12.95;9.98;;;;;;;13.46;100.00;101031.94;1657767;85;21063;-85
2021/09/15 02:12:45;;;;;;;13.05;9.13;;;;;;;13.49;100.00;101028.59;1747293;82;20935;-85
2021/09/15 02:15:14;;;;;;;14.75;8.95;;;;;;;13.54;100.00;101021.69;1714617;82;21134;-83
2021/09/15 02:17:42;;;;;;;16.50;9.73;;;;;;;13.62;100.00;101031.52;1691680;82;21140;-83
2021/09/15 02:20:12;;;;;;;12.25;8.58;;;;;;;13.67;100.00;101024.95;1709339;82;21005;-84
2021/09/15 02:22:43;;;;;;;14.95;8.80;;;;;;;13.75;100.00;101026.11;1688266;83;21081;-84
2021/09/15 02:25:29;;;;;;;16.77;8.60;;;;;;;13.84;100.00;101028.78;1691874;83;21053;-85
2021/09/15 02:27:56;;;;;;;10.80;7.60;;;;;;;13.94;100.00;101030.16;1691657;83;21102;-84
2021/09/15 02:30:30;;;;;;;20.97;8.30;;;;;;;14.02;100.00;101025.61;1688684;83;21069;-83
2021/09/15 02:32:59;;;;;;;20.72;8.18;;;;;;;14.07;100.00;101026.05;1688297;83;21030;-84
2021/09/15 02:35:39;;;;;;;22.17;8.70;;;;;;;14.11;100.00;101030.08;1709284;83;20958;-85
2021/09/15 02:38:24;;;;;;;17.27;7.92;;;;;;;14.11;100.00;101036.63;1712277;83;21086;-84
2021/09/15 02:40:56;;;;;;;16.82;8.35;;;;;;;14.02;100.00;101042.62;1709585;82;21151;-84
2021/09/15 02:43:42;;;;;;;16.17;7.50;;;;;;;13.94;100.00;101047.17;1691643;83;21000;-85
2021/09/15 02:46:13;;;;;;;24.40;8.28;;;;;;;13.90;100.00;101051.51;1628733;83;21056;-83
2021/09/15 02:49:00;;;;;;;13.95;8.05;;;;;;;13.83;100.00;101053.30;1691815;83;21020;-85
2021/09/15 02:51:29;;;;;;;19.55;7.20;;;;;;;13.85;100.00;101051.39;1688297;83;21514;-84
2021/09/15 02:54:06;;;;;;;20.35;7.67;;;;;;;13.90;100.00;101054.13;1691527;83;21080;-84
2021/09/15 02:56:41;;;;;;;27.37;8.75;;;;;;;13.94;100.00;101060.27;1676982;83;21064;-82
2021/09/15 02:59:26;;;;;;;21.93;9.00;;;;;;;13.94;100.00;101066.81;1691808;83;21326;-83
2021/09/15 03:01:55;;;;;;;125.50;13.28;;;;;;;13.94;100.00;101064.69;1689319;82;21023;-84
2021/09/15 03:04:27;;;;;;;59.30;10.63;;;;;;;13.95;100.00;101061.93;1740867;81;21113;-83
2021/09/15 03:06:56;;;;;;;50.00;10.95;;;;;;;13.99;100.00;101066.44;1695616;82;21062;-82
2021/09/15 03:09:26;;;;;;;22.45;8.10;;;;;;;14.01;100.00;101071.92;1712219;82;21022;-84
2021/09/15 03:11:54;;;;;;;31.97;9.38;;;;;;;14.01;100.00;101077.16;1691873;83;21094;-85
2021/09/15 03:14:22;;;;;;;27.00;10.58;;;;;;;14.03;100.00;101082.26;1711960;82;21149;-84
2021/09/15 03:16:54;;;;;;;33.02;15.45;;;;;;;14.07;100.00;101084.14;1729364;81;20986;-82
2021/09/15 03:19:22;;;;;;;37.17;11.70;;;;;;;14.09;100.00;101080.92;1739294;82;20928;-83
2021/09/15 03:21:49;;;;;;;20.40;10.65;;;;;;;14.11;100.00;101096.86;1723174;82;20991;-84
2021/09/15 03:24:17;;;;;;;13.72;8.10;;;;;;;14.08;100.00;101091.05;1691926;81;21089;-86
2021/09/15 03:26:47;;;;;;;14.18;7.95;;;;;;;13.98;100.00;101090.98;1725310;82;21058;-82
2021/09/15 03:29:16;;;;;;;51.85;10.35;;;;;;;13.85;100.00;101101.13;1720540;82;20948;-83
2021/09/15 03:31:43;;;;;;;21.75;9.03;;;;;;;13.67;100.00;101110.00;1686044;84;21084;-84
2021/09/15 03:34:10;;;;;;;15.25;8.93;;;;;;;13.55;100.00;101113.58;1660991;85;21046;-81
2021/09/15 03:36:39;;;;;;;14.03;8.40;;;;;;;13.43;100.00;101115.39;1696518;84;21086;-82
2021/09/15 03:39:06;;;;;;;12.55;7.90;;;;;;;13.36;100.00;101117.66;1727539;81;21073;-83
2021/09/15 03:41:33;;;;;;;17.57;12.47;;;;;;;13.29;100.00;101126.09;1727794;81;21085;-82
2021/09/15 03:44:00;;;;;;;14.25;10.15;;;;;;;13.23;100.00;101130.02;1695089;83;21170;-85
2021/09/15 03:46:30;;;;;;;14.85;9.30;;;;;;;13.16;100.00;101125.76;1727690;81;20990;-83
2021/09/15 03:48:57;;;;;;;14.65;8.68;;;;;;;13.11;100.00;101127.88;1727163;81;21026;-81
2021/09/15 03:51:24;;;;;;;14.55;8.60;;;;;;;13.07;100.00;101134.31;1727134;81;21567;-82
2021/09/15 03:53:51;;;;;;;16.15;9.45;;;;;;;13.05;100.00;101127.05;1727255;81;21077;-81
2021/09/15 03:56:18;;;;;;;15.15;10.35;;;;;;;13.04;100.00;101130.16;1697146;83;21051;-83
2021/09/15 03:58:45;;;;;;;32.80;10.88;;;;;;;13.06;100.00;101135.25;1711907;83;21065;-83
2021/09/15 04:01:14;;;;;;;19.75;10.95;;;;;;;13.06;100.00;101136.08;1691518;83;21048;-83
2021/09/15 04:03:43;;;;;;;23.12;11.30;;;;;;;13.06;100.00;101137.38;1712061;83;21079;-83
2021/09/15 04:06:10;;;;;;;28.67;11.00;;;;;;;13.06;100.00;101132.16;1688387;83;21060;-84
2021/09/15 04:08:38;;;;;;;18.10;10.28;;;;;;;13.04;100.00;101135.38;1691639;83;21096;-83
2021/09/15 04:11:07;;;;;;;16.05;10.28;;;;;;;13.02;100.00;101132.05;1691512;82;21049;-83
2021/09/15 04:13:36;;;;;;;15.00;10.40;;;;;;;12.98;100.00;101131.91;1712155;83;21044;-83
2021/09/15 04:16:03;;;;;;;16.70;10.38;;;;;;;12.92;100.00;101141.09;1693190;81;21061;-81
2021/09/15 04:18:33;;;;;;;17.67;11.12;;;;;;;12.88;100.00;101140.95;1725851;83;21449;-82
2021/09/15 04:21:03;;;;;;;16.45;10.15;;;;;;;12.84;100.00;101147.83;1759549;81;21548;-81
2021/09/15 04:23:36;;;;;;;13.55;9.65;;;;;;;12.81;100.00;101147.59;1725921;83;20978;-84
2021/09/15 04:31:32;;;;;;;12.53;8.73;;;;;;;12.75;100.00;101155.42;1709112;82;21096;-81
2021/09/15 04:34:02;;;;;;;11.73;8.83;;;;;;;12.72;100.00;101156.13;1711349;82;21556;-81
2021/09/15 04:36:31;;;;;;;9.43;8.20;;;;;;;12.65;100.00;101152.31;1733899;81;20999;-80
2021/09/15 04:39:01;;;;;;;12.73;8.20;;;;;;;12.60;100.00;101157.43;1719250;82;21085;-81
2021/09/15 04:41:28;;;;;;;10.75;8.20;;;;;;;12.58;100.00;101159.31;1744710;81;21051;-82
2021/09/15 04:43:56;;;;;;;11.88;8.65;;;;;;;12.55;100.00;101162.63;1741722;81;21488;-81
2021/09/15 04:46:23;;;;;;;9.58;7.87;;;;;;;12.54;100.00;101167.50;1722104;82;21050;-81
2021/09/15 04:48:51;;;;;;;10.82;7.90;;;;;;;12.54;100.00;101164.39;1691506;83;20954;-82
2021/09/15 04:51:19;;;;;;;10.08;7.90;;;;;;;12.52;100.00;101175.45;1703141;82;20975;-82
2021/09/15 04:53:47;;;;;;;10.13;7.87;;;;;;;12.51;100.00;101181.63;1728443;82;21015;-83
2021/09/15 04:56:14;;;;;;;12.63;8.48;;;;;;;12.50;100.00;101182.56;1744578;82;21157;-82
2021/09/15 04:58:41;;;;;;;9.20;7.83;;;;;;;12.52;100.00;101183.75;1728348;82;21191;-82
2021/09/15 05:01:08;;;;;;;9.73;7.62;;;;;;;12.56;100.00;101187.81;1717288;82;21030;-82
2021/09/15 05:03:35;;;;;;;12.60;7.87;;;;;;;12.61;100.00;101185.22;1691531;83;21069;-81
2021/09/15 05:06:02;;;;;;;9.40;7.62;;;;;;;12.68;100.00;101180.35;1714052;81;21002;-82
2021/09/15 05:08:30;;;;;;;11.73;6.72;;;;;;;12.76;100.00;101184.52;1714604;82;21098;-80
2021/09/15 05:10:58;;;;;;;9.10;6.15;;;;;;;12.85;100.00;101187.39;1705804;83;21499;-82
2021/09/15 05:13:27;;;;;;;9.43;6.95;;;;;;;12.93;100.00;101187.19;1672342;85;21101;-83
2021/09/15 05:15:55;;;;;;;11.73;7.22;;;;;;;13.01;100.00;101185.77;1684157;83;21037;-81
2021/09/15 05:18:26;;;;;;;10.60;6.67;;;;;;;13.10;100.00;101182.42;1680783;84;21069;-82
2021/09/15 05:20:55;;;;;;;10.58;7.33;;;;;;;13.18;100.00;101187.08;1677856;83;21061;-82
2021/09/15 05:23:22;;;;;;;9.33;7.15;;;;;;;13.28;100.00;101181.95;1677237;83;21573;-82
2021/09/15 05:25:52;;;;;;;9.30;6.40;;;;;;;13.34;100.00;101184.94;1677024;83;21607;-80
2021/09/15 05:28:20;;;;;;;8.28;6.12;;;;;;;13.41;100.00;101190.56;1680704;84;21097;-81
2021/09/15 05:30:48;;;;;;;10.78;6.45;;;;;;;13.47;100.00;101181.38;1679437;83;21070;-81
2021/09/15 05:33:15;;;;;;;7.83;6.15;;;;;;;13.52;100.00;101185.30;1661137;84;21035;-81
2021/09/15 05:35:44;;;;;;;9.00;6.05;;;;;;;13.58;100.00;101184.48;1689191;83;21097;-80
2021/09/15 05:38:12;;;;;;;7.22;5.70;;;;;;;13.60;100.00;101184.72;1652918;86;21058;-80
2021/09/15 05:40:57;;;;;;;11.28;5.85;;;;;;;13.65;100.00;101189.59;1657407;84;21030;-80
2021/09/15 05:43:24;;;;;;;7.92;5.28;;;;;;;13.68;100.00;101185.40;1656212;85;21034;-81
2021/09/15 05:45:51;;;;;;;6.75;5.65;;;;;;;13.73;100.00;101188.50;1613308;86;21586;-81
2021/09/15 05:48:19;;;;;;;10.93;5.92;;;;;;;13.80;100.00;101192.30;1630099;87;21112;-81
2021/09/15 05:50:46;;;;;;;7.40;5.78;;;;;;;13.88;100.00;101195.13;1633591;86;21511;-81
2021/09/15 05:53:14;;;;;;;9.38;5.70;;;;;;;13.96;100.00;101197.61;1657489;85;21574;-80
2021/09/15 05:55:41;;;;;;;8.68;5.80;;;;;;;14.05;100.00;101196.88;1678993;85;21501;-80
2021/09/15 05:58:08;;;;;;;6.15;4.47;;;;;;;14.16;100.00;101191.58;1672007;85;21011;-81
2021/09/15 06:00:35;;;;;;;11.10;5.25;;;;;;;14.26;100.00;101196.89;1672118;85;21103;-80
2021/09/15 06:03:08;;;;;;;7.75;4.90;;;;;;;14.31;100.00;101190.81;1679288;85;21097;-80
2021/09/15 06:05:53;;;;;;;8.78;5.12;;;;;;;14.40;100.00;101193.14;1667007;84;21062;-81
2021/09/15 06:08:21;;;;;;;7.67;4.70;;;;;;;14.51;100.00;101197.50;1664704;85;21074;-80
2021/09/15 06:10:49;;;;;;;7.10;4.80;;;;;;;14.63;100.00;101199.58;1666344;85;20967;-82
2021/09/15 06:13:18;;;;;;;7.17;4.67;;;;;;;14.74;100.00;101209.23;1688288;85;21019;-80
2021/09/15 06:15:46;;;;;;;7.22;4.40;;;;;;;14.82;100.00;101204.17;1665873;85;21058;-80
2021/09/15 06:18:15;;;;;;;5.42;4.35;;;;;;;14.91;100.00;101213.05;1688248;85;21138;-80
2021/09/15 06:20:45;;;;;;;6.93;4.93;;;;;;;15.01;100.00;101213.09;1649165;84;21543;-82
2021/09/15 06:23:14;;;;;;;5.70;5.00;;;;;;;15.08;100.00;101215.08;1657687;86;21445;-82
2021/09/15 06:25:44;;;;;;;8.75;4.62;;;;;;;15.14;100.00;101217.17;1659197;85;21103;-82
2021/09/15 06:28:12;;;;;;;6.30;5.20;;;;;;;15.24;100.00;101221.64;1616528;86;21112;-82
2021/09/15 06:30:45;;;;;;;9.03;4.90;;;;;;;15.33;100.00;101223.48;1660481;86;21036;-82
2021/09/15 06:33:10;;;;;;;5.75;4.40;;;;;;;15.39;100.00;101216.84;1660129;86;21134;-82
2021/09/15 06:35:37;;;;;;;6.35;4.92;;;;;;;15.49;100.00;101220.84;1646369;85;21493;-82
2021/09/15 06:38:04;;;;;;;7.33;4.70;;;;;;;15.59;100.00;101228.25;1666452;85;21657;-82
2021/09/15 06:40:31;;;;;;;6.90;5.03;;;;;;;15.69;100.00;101224.36;1663676;85;21648;-82
2021/09/15 06:42:58;;;;;;;8.03;5.12;;;;;;;15.78;100.00;101220.94;1626903;86;21590;-82
2021/09/15 06:45:25;;;;;;;7.80;5.08;;;;;;;15.87;100.00;101222.75;1610773;85;21062;-82
2021/09/15 06:47:54;;;;;;;5.37;4.87;;;;;;;15.99;100.00;101224.78;1687233;85;21608;-81
2021/09/15 06:50:21;;;;;;;6.65;4.92;;;;;;;16.07;100.00;101222.30;1685297;84;21071;-82
2021/09/15 06:52:51;;;;;;;5.72;4.60;;;;;;;16.14;100.00;101219.16;1680395;85;20952;-83
2021/09/15 06:55:19;;;;;;;7.53;4.05;;;;;;;16.24;100.00;101222.59;1681602;84;20983;-84
2021/09/15 06:57:46;;;;;;;7.45;3.70;;;;;;;16.30;100.00;101226.47;1653029;86;21556;-84
2021/09/15 07:00:14;;;;;;;5.97;3.47;;;;;;;16.31;92.80;101228.14;1657633;85;21601;-84
2021/09/15 07:02:41;;;;;;;5.58;3.47;;;;;;;16.27;83.61;101231.53;1634071;86;22092;-82
2021/09/15 07:05:08;;;;;;;5.83;2.98;;;;;;;16.24;82.13;101230.01;1656179;85;21131;-83
2021/09/15 07:07:37;;;;;;;5.55;3.00;;;;;;;16.27;79.33;101231.99;1651483;86;21174;-84
2021/09/15 07:10:07;;;;;;;4.95;2.77;;;;;;;16.28;71.80;101230.56;1675754;85;21576;-82
2021/09/15 07:12:39;;;;;;;4.40;2.52;;;;;;;16.35;76.37;101236.92;1651593;86;21038;-83
2021/09/15 07:15:09;;;;;;;3.52;2.90;;;;;;;16.42;70.82;101233.27;1652243;84;21143;-84
2021/09/15 07:17:36;;;;;;;3.10;2.80;;;;;;;16.48;67.74;101231.39;1652936;86;21508;-84
2021/09/15 07:20:04;;;;;;;5.42;3.52;;;;;;;16.54;77.17;101222.12;1661682;84;21114;-85
2021/09/15 07:22:33;;;;;;;8.90;3.10;;;;;;;16.59;65.92;101227.78;1704988;84;21053;-84
2021/09/15 07:25:00;;;;;;;5.67;3.02;;;;;;;16.61;61.45;101227.16;1688581;83;20982;-84
2021/09/15 07:27:27;;;;;;;4.60;2.65;;;;;;;16.65;64.69;101228.53;1759687;81;21160;-83
2021/09/15 07:29:54;;;;;;;2.75;2.40;;;;;;;16.75;57.04;101229.83;1759395;81;20978;-83
2021/09/15 07:32:21;;;;;;;3.58;2.67;;;;;;;16.81;58.15;101233.23;1719973;81;21157;-83
2021/09/15 07:34:48;;;;;;;2.50;2.12;;;;;;;16.88;57.77;101217.22;1705089;82;21137;-84
2021/09/15 07:37:18;;;;;;;2.98;2.12;;;;;;;17.00;54.35;101223.17;1716607;82;21098;-83
2021/09/15 07:39:45;;;;;;;10.78;2.42;;;;;;;17.19;51.78;101229.33;1718170;82;21092;-83
2021/09/15 07:42:12;;;;;;;2.70;2.08;;;;;;;17.29;46.43;101218.28;1720680;82;21035;-84
2021/09/15 07:44:39;;;;;;;2.60;1.90;;;;;;;17.31;42.47;101222.92;1719797;82;21034;-84
2021/09/15 07:47:06;;;;;;;2.75;2.00;;;;;;;17.34;43.83;101216.54;1694268;82;21024;-82
2021/09/15 07:49:34;;;;;;;3.77;1.90;;;;;;;17.38;42.53;101218.39;1710078;81;21021;-83
2021/09/15 07:52:01;;;;;;;3.08;1.80;;;;;;;17.41;40.58;101218.11;1727168;81;21105;-84
2021/09/15 07:54:28;;;;;;;3.52;1.75;;;;;;;17.45;40.54;101226.05;1759106;81;21042;-81
2021/09/15 07:56:56;;;;;;;2.30;1.82;;;;;;;17.48;40.90;101211.28;1715565;82;21636;-83
2021/09/15 07:59:23;;;;;;;2.20;1.98;;;;;;;17.55;38.34;101214.98;1728033;82;21063;-84
2021/09/15 08:01:50;;;;;;;2.87;2.27;;;;;;;17.64;37.85;101205.37;1683899;84;21060;-85
2021/09/15 08:04:17;;;;;;;2.98;2.12;;;;;;;17.70;37.95;101203.95;1652043;85;21126;-84
2021/09/15 08:06:45;;;;;;;2.17;1.90;;;;;;;17.74;38.43;101205.33;1668390;84;21020;-82
2021/09/15 08:09:12;;;;;;;3.02;2.35;;;;;;;17.78;37.26;101197.45;1682906;83;21086;-86
2021/09/15 08:11:46;;;;;;;2.80;1.98;;;;;;;17.86;37.20;101202.00;1699423;82;21067;-83
2021/09/15 08:14:15;;;;;;;4.53;2.10;;;;;;;17.93;36.23;101197.28;1716440;82;21465;-85
2021/09/15 08:16:43;;;;;;;2.75;1.90;;;;;;;18.04;36.64;101200.21;1712483;81;21503;-83
2021/09/15 08:19:10;;;;;;;2.27;2.08;;;;;;;18.14;32.91;101197.53;1711874;83;21158;-84
2021/09/15 08:21:37;;;;;;;3.55;2.50;;;;;;;18.22;35.39;101192.33;1699813;82;21027;-82
2021/09/15 08:24:04;;;;;;;3.10;2.05;;;;;;;18.35;35.63;101189.27;1713817;83;21045;-84
2021/09/15 08:26:31;;;;;;;3.33;2.27;;;;;;;18.46;35.98;101193.50;1660620;83;21085;-84
2021/09/15 08:28:58;;;;;;;2.20;2.00;;;;;;;18.58;35.59;101190.94;1633811;86;21094;-86
2021/09/15 08:31:27;;;;;;;3.10;2.40;;;;;;;18.72;32.33;101186.92;1644907;84;21071;-84
2021/09/15 08:33:54;;;;;;;3.30;2.30;;;;;;;18.81;33.03;101196.20;1642849;86;21107;-84
2021/09/15 08:36:21;;;;;;;4.30;2.60;;;;;;;18.83;31.82;101189.78;1666402;85;21650;-82
2021/09/15 08:38:48;;;;;;;4.95;2.40;;;;;;;18.86;33.56;101187.32;1646993;85;21107;-83
2021/09/15 08:41:16;;;;;;;4.17;2.08;;;;;;;18.94;31.91;101183.45;1655152;85;21122;-82
2021/09/15 08:43:44;;;;;;;4.58;3.12;;;;;;;18.98;33.54;101181.31;1643413;86;21030;-84
2021/09/15 08:46:13;;;;;;;6.90;2.75;;;;;;;18.98;32.73;101188.77;1634271;86;21090;-84
2021/09/15 08:48:43;;;;;;;6.92;3.00;;;;;;;19.01;32.82;101185.78;1649892;86;21038;-84
2021/09/15 08:51:16;;;;;;;4.10;2.70;;;;;;;19.01;33.10;101188.42;1643663;85;21134;-83
2021/09/15 08:53:43;;;;;;;5.53;3.12;;;;;;;19.11;32.38;101195.41;1684208;84;21125;-85
2021/09/15 08:56:12;;;;;;;6.08;2.30;;;;;;;19.18;32.77;101190.67;1660585;85;21042;-83
2021/09/15 08:58:39;;;;;;;5.20;2.52;;;;;;;19.22;32.84;101192.00;1648680;86;21106;-84
2021/09/15 09:01:25;;;;;;;5.15;2.45;;;;;;;19.24;33.90;101186.55;1639266;86;21054;-84
2021/09/15 09:03:56;;;;;;;2.52;2.10;;;;;;;19.32;34.34;101180.48;1621639;87;21054;-83
2021/09/15 09:06:28;;;;;;;3.98;2.40;;;;;;;19.44;34.77;101179.70;1628531;84;21149;-85
2021/09/15 09:09:00;;;;;;;2.70;2.10;;;;;;;19.59;35.05;101179.92;1680565;85;21082;-83
2021/09/15 09:11:30;;;;;;;2.02;1.82;;;;;;;19.68;32.59;101174.97;1675886;84;21064;-84
2021/09/15 09:14:05;;;;;;;4.78;2.15;;;;;;;19.68;33.72;101178.45;1648530;86;20968;-84
2021/09/15 09:16:50;;;;;;;6.92;2.20;;;;;;;19.69;32.79;101169.55;1674447;83;21064;-84
2021/09/15 09:19:27;;;;;;;3.00;2.20;;;;;;;19.68;33.82;101171.01;1676269;85;21058;-83
2021/09/15 09:21:53;;;;;;;3.08;1.92;;;;;;;19.68;33.94;101165.72;1656970;85;21029;-84
2021/09/15 09:24:24;;;;;;;1.72;1.62;;;;;;;19.76;33.01;101171.02;1680514;85;21061;-82
2021/09/15 09:26:58;;;;;;;5.50;1.90;;;;;;;19.80;33.58;101168.41;1685817;83;21850;-83
2021/09/15 09:29:38;;;;;;;2.22;1.67;;;;;;;19.83;33.86;101163.28;1692258;83;21034;-84
2021/09/15 09:32:10;;;;;;;2.50;1.90;;;;;;;19.93;34.80;101167.12;1675924;83;21784;-85
2021/09/15 09:34:44;;;;;;;1.80;1.60;;;;;;;20.02;34.01;101170.10;1694736;83;21502;-84
2021/09/15 09:37:17;;;;;;;2.40;1.95;;;;;;;20.04;34.13;101169.92;1661497;85;21566;-83
2021/09/15 09:39:57;;;;;;;3.37;2.35;;;;;;;20.02;33.63;101170.10;1666160;84;21014;-84
2021/09/15 09:42:28;;;;;;;4.17;2.30;;;;;;;20.00;32.50;101166.31;1633860;86;22087;-84
2021/09/15 09:45:11;;;;;;;3.35;2.42;;;;;;;20.00;34.21;101169.43;1657497;85;21059;-84
2021/09/15 09:47:40;;;;;;;3.40;2.10;;;;;;;20.00;33.45;101173.40;1635555;85;21057;-83
2021/09/15 09:50:18;;;;;;;2.10;1.82;;;;;;;20.05;33.78;101168.94;1661026;85;21028;-84
2021/09/15 09:53:00;;;;;;;2.10;1.90;;;;;;;20.09;33.34;101164.48;1650635;85;21082;-84
2021/09/15 09:55:32;;;;;;;2.47;2.27;;;;;;;20.12;32.74;101169.94;1682972;83;21028;-82
2021/09/15 09:58:04;;;;;;;1.98;1.75;;;;;;;20.13;33.84;101174.23;1653315;85;21064;-84
2021/09/15 10:00:32;;;;;;;2.10;2.00;;;;;;;20.17;33.05;101163.67;1680853;85;21094;-82
2021/09/15 10:02:59;;;;;;;1.82;1.70;;;;;;;20.24;33.11;101162.50;1653967;86;21498;-82
2021/09/15 10:05:27;;;;;;;2.30;2.08;;;;;;;20.26;32.63;101160.52;1646002;86;37919;-83
2021/09/15 10:07:54;;;;;;;4.37;2.05;;;;;;;20.28;36.65;101155.91;1668373;84;21062;-84
2021/09/15 10:10:22;;;;;;;2.37;2.05;;;;;;;20.40;33.55;101157.70;1684813;84;21093;-83
2021/09/15 10:12:51;;;;;;;2.87;1.85;;;;;;;20.45;34.28;101151.41;1660443;85;21095;-82
2021/09/15 10:15:19;;;;;;;3.55;2.10;;;;;;;20.49;34.20;101146.94;1705234;84;21035;-82
2021/09/15 10:17:55;;;;;;;2.37;2.12;;;;;;;20.53;34.82;101154.55;1654946;86;21054;-83
2021/09/15 10:20:29;;;;;;;5.00;2.12;;;;;;;20.58;35.80;101150.89;1676419;84;21121;-82
2021/09/15 10:22:57;;;;;;;3.87;2.08;;;;;;;20.68;34.52;101146.73;1680068;84;21209;-82
2021/09/15 10:25:39;;;;;;;4.15;2.30;;;;;;;20.75;36.52;101147.25;1677176;85;21032;-84
2021/09/15 10:28:08;;;;;;;;;;;;;;;20.83;34.31;101156.16;1676120;83;21497;-84
2021/09/15 10:30:50;;;;;;;2.98;2.20;;;;;;;20.79;34.06;101138.48;1685113;83;20162;-83
2021/09/15 10:33:41;;;;;;;4.12;1.92;;;;;;;20.76;34.88;101139.64;1664126;85;21602;-81
2021/09/15 10:36:22;;;;;;;6.53;1.83;;;;;;;20.74;35.69;101129.72;1697793;83;21191;-85
2021/09/15 10:39:11;;;;;;;3.10;1.98;;;;;;;20.78;34.50;101132.37;1705491;84;21027;-82
2021/09/15 10:41:43;;;;;;;3.65;1.80;;;;;;;20.78;34.65;101124.91;1671319;85;20992;-82
2021/09/15 10:44:15;;;;;;;2.80;2.10;;;;;;;20.82;35.53;101121.42;1684755;84;21062;-82
2021/09/15 10:46:44;;;;;;;3.20;1.85;;;;;;;20.85;35.16;101122.42;1658528;83;21026;-82
2021/09/15 10:49:27;;;;;;;2.55;1.75;;;;;;;20.88;36.17;101119.41;1675580;85;22483;-82
2021/09/15 10:52:15;;;;;;;2.80;1.72;;;;;;;20.98;34.94;101128.50;1641869;86;21102;-83
2021/09/15 10:54:55;;;;;;;2.72;2.22;;;;;;;21.02;36.24;101127.98;1660504;85;21141;-83
2021/09/15 10:57:33;;;;;;;3.98;1.92;;;;;;;21.01;35.42;101125.00;1638899;86;21086;-83
2021/09/15 11:00:21;;;;;;;1.90;1.70;;;;;;;21.04;36.51;101126.48;1660432;85;21585;-81
2021/09/15 11:02:49;;;;;;;2.12;1.65;;;;;;;21.09;36.16;101122.32;1660589;85;21157;-82
2021/09/15 11:05:42;;;;;;;6.80;1.65;;;;;;;21.19;35.50;101122.62;1660581;85;21069;-82
2021/09/15 11:08:25;;;;;;;7.28;2.25;;;;;;;21.24;33.96;101118.42;1688408;85;21081;-83
2021/09/15 11:10:53;;;;;;;2.80;1.87;;;;;;;21.25;36.37;101117.94;1684927;85;21596;-84
2021/09/15 11:13:39;;;;;;;1.90;1.57;;;;;;;21.24;34.79;101125.55;1675546;85;21078;-84
2021/09/15 11:16:41;;;;;;;5.20;2.20;;;;;;;21.18;35.39;101115.66;1649830;85;21793;-83
2021/09/15 11:19:19;;;;;;;2.87;1.98;;;;;;;21.16;34.41;101124.27;1673154;85;21142;-83
2021/09/15 11:21:54;;;;;;;3.15;1.90;;;;;;;21.12;35.19;101121.96;1632105;85;21101;-83
2021/09/15 11:24:30;;;;;;;5.30;2.10;;;;;;;21.11;35.02;101116.33;1662388;85;22068;-84
2021/09/15 11:27:06;;;;;;;3.70;2.30;;;;;;;21.10;34.67;101114.71;1659083;84;21086;-83
2021/09/15 11:29:52;;;;;;;2.37;1.70;;;;;;;21.07;34.51;101115.05;1646884;86;21118;-83
2021/09/15 11:32:18;;;;;;;3.70;2.12;;;;;;;21.04;35.35;101106.62;1668542;85;21122;-82
2021/09/15 11:34:50;;;;;;;2.47;2.00;;;;;;;21.07;34.38;101103.12;1672724;85;21422;-84
2021/09/15 11:37:27;;;;;;;3.08;1.75;;;;;;;21.04;33.66;101107.44;1635754;85;21055;-83
2021/09/15 11:40:04;;;;;;;3.90;1.77;;;;;;;20.99;34.94;101105.81;1655353;86;21053;-83